sensor_id;sensor_type;location;lat;lon;timestamp;temperature;humidity
19359;DHT22;9815;52.334;20.890;2023-06-22T00:01:25;19.30;99.90
19359;DHT22;9815;52.334;20.890;2023-06-22T00:03:53;19.20;99.90
19359;DHT22;9815;52.334;20.890;2023-06-22T00:06:22;19.20;99.90
19359;DHT22;9815;52.334;20.890;2023-06-22T00:08:51;19.10;99.90
19359;DHT22;9815;52.334;20.890;2023-06-22T00:11:19;19.10;99.90
19359;DHT22;9815;52.334;20.890;2023-06-22T00:13:47;19.00;99.90
19359;DHT22;9815;52.334;20.890;2023-06-22T00:16:17;19.00;99.90
19359;DHT22;9815;52.334;20.890;2023-06-22T00:18:45;19.00;99.90
19359;DHT22;9815;52.334;20.890;2023-06-22T00:21:14;19.00;99.90
19359;DHT22;9815;52.334;20.890;2023-06-22T00:23:42;18.90;99.90
19359;DHT22;9815;52.334;20.890;2023-06-22T00:26:11;18.90;99.90
19359;DHT22;9815;52.334;20.890;2023-06-22T00:28:40;18.90;99.90
19359;DHT22;9815;52.334;20.890;2023-06-22T00:31:08;18.80;99.90
19359;DHT22;9815;52.334;20.890;2023-06-22T00:33:36;18.80;99.90
19359;DHT22;9815;52.334;20.890;2023-06-22T00:36:05;18.60;99.90
19359;DHT22;9815;52.334;20.890;2023-06-22T00:38:37;18.70;99.90
19359;DHT22;9815;52.334;20.890;2023-06-22T00:41:08;18.70;99.90
19359;DHT22;9815;52.334;20.890;2023-06-22T00:43:37;18.70;99.90
19359;DHT22;9815;52.334;20.890;2023-06-22T00:46:05;18.70;99.90
19359;DHT22;9815;52.334;20.890;2023-06-22T00:48:33;18.70;99.90
19359;DHT22;9815;52.334;20.890;2023-06-22T00:51:03;18.60;99.90
19359;DHT22;9815;52.334;20.890;2023-06-22T00:53:32;18.60;99.90
19359;DHT22;9815;52.334;20.890;2023-06-22T00:56:02;18.60;99.90
19359;DHT22;9815;52.334;20.890;2023-06-22T00:58:31;18.60;99.90
19359;DHT22;9815;52.334;20.890;2023-06-22T01:01:01;18.60;99.90
19359;DHT22;9815;52.334;20.890;2023-06-22T01:03:29;18.60;99.90
19359;DHT22;9815;52.334;20.890;2023-06-22T01:06:02;18.60;99.90
19359;DHT22;9815;52.334;20.890;2023-06-22T01:08:41;18.50;99.90
19359;DHT22;9815;52.334;20.890;2023-06-22T01:11:16;18.60;99.90
19359;DHT22;9815;52.334;20.890;2023-06-22T01:13:53;18.60;99.90
19359;DHT22;9815;52.334;20.890;2023-06-22T01:16:29;18.50;99.90
19359;DHT22;9815;52.334;20.890;2023-06-22T01:19:16;18.50;99.90
19359;DHT22;9815;52.334;20.890;2023-06-22T01:21:49;18.40;99.90
19359;DHT22;9815;52.334;20.890;2023-06-22T01:24:32;18.50;99.90
19359;DHT22;9815;52.334;20.890;2023-06-22T01:27:09;18.40;99.90
19359;DHT22;9815;52.334;20.890;2023-06-22T01:29:43;18.40;99.90
19359;DHT22;9815;52.334;20.890;2023-06-22T01:32:13;18.40;99.90
19359;DHT22;9815;52.334;20.890;2023-06-22T01:34:42;18.40;99.90
19359;DHT22;9815;52.334;20.890;2023-06-22T01:37:10;18.40;99.90
19359;DHT22;9815;52.334;20.890;2023-06-22T01:39:39;18.40;99.90
19359;DHT22;9815;52.334;20.890;2023-06-22T01:42:07;18.50;99.90
19359;DHT22;9815;52.334;20.890;2023-06-22T01:44:36;18.40;99.90
19359;DHT22;9815;52.334;20.890;2023-06-22T01:47:10;18.40;99.90
19359;DHT22;9815;52.334;20.890;2023-06-22T01:49:43;18.40;99.90
19359;DHT22;9815;52.334;20.890;2023-06-22T01:52:11;18.40;99.90
19359;DHT22;9815;52.334;20.890;2023-06-22T01:54:39;18.40;99.90
19359;DHT22;9815;52.334;20.890;2023-06-22T01:57:08;18.40;99.90
19359;DHT22;9815;52.334;20.890;2023-06-22T01:59:42;18.40;99.90
19359;DHT22;9815;52.334;20.890;2023-06-22T02:02:16;18.40;99.90
19359;DHT22;9815;52.334;20.890;2023-06-22T02:04:52;18.40;99.90
19359;DHT22;9815;52.334;20.890;2023-06-22T02:07:23;18.30;99.90
19359;DHT22;9815;52.334;20.890;2023-06-22T02:09:55;18.20;99.90
19359;DHT22;9815;52.334;20.890;2023-06-22T02:12:25;18.20;99.90
19359;DHT22;9815;52.334;20.890;2023-06-22T02:14:55;18.30;99.90
19359;DHT22;9815;52.334;20.890;2023-06-22T02:17:26;18.20;99.90
19359;DHT22;9815;52.334;20.890;2023-06-22T02:19:54;18.30;99.90
19359;DHT22;9815;52.334;20.890;2023-06-22T02:22:22;18.20;99.90
19359;DHT22;9815;52.334;20.890;2023-06-22T02:24:50;18.20;99.90
19359;DHT22;9815;52.334;20.890;2023-06-22T02:27:19;18.40;99.90
19359;DHT22;9815;52.334;20.890;2023-06-22T02:29:47;18.30;99.90
19359;DHT22;9815;52.334;20.890;2023-06-22T02:32:15;18.30;99.90
19359;DHT22;9815;52.334;20.890;2023-06-22T02:34:47;18.20;99.90
19359;DHT22;9815;52.334;20.890;2023-06-22T02:37:15;18.20;99.90
19359;DHT22;9815;52.334;20.890;2023-06-22T02:39:43;18.20;99.90
19359;DHT22;9815;52.334;20.890;2023-06-22T02:42:11;18.30;99.90
19359;DHT22;9815;52.334;20.890;2023-06-22T02:44:42;18.40;99.90
19359;DHT22;9815;52.334;20.890;2023-06-22T02:47:10;18.30;99.90
19359;DHT22;9815;52.334;20.890;2023-06-22T02:49:38;18.40;99.90
19359;DHT22;9815;52.334;20.890;2023-06-22T02:52:07;18.40;99.90
19359;DHT22;9815;52.334;20.890;2023-06-22T02:54:37;18.50;99.90
19359;DHT22;9815;52.334;20.890;2023-06-22T02:57:05;18.60;99.90
19359;DHT22;9815;52.334;20.890;2023-06-22T02:59:34;18.60;99.90
19359;DHT22;9815;52.334;20.890;2023-06-22T03:02:08;18.60;99.90
19359;DHT22;9815;52.334;20.890;2023-06-22T03:04:37;18.70;99.90
19359;DHT22;9815;52.334;20.890;2023-06-22T03:07:06;18.70;99.90
19359;DHT22;9815;52.334;20.890;2023-06-22T03:09:35;18.80;99.90
19359;DHT22;9815;52.334;20.890;2023-06-22T03:12:03;18.70;99.90
19359;DHT22;9815;52.334;20.890;2023-06-22T03:14:40;18.80;99.90
19359;DHT22;9815;52.334;20.890;2023-06-22T03:17:09;18.80;99.90
19359;DHT22;9815;52.334;20.890;2023-06-22T03:19:38;18.80;99.90
19359;DHT22;9815;52.334;20.890;2023-06-22T03:22:07;18.80;99.90
19359;DHT22;9815;52.334;20.890;2023-06-22T03:24:39;18.80;99.90
19359;DHT22;9815;52.334;20.890;2023-06-22T03:27:07;18.80;99.90
19359;DHT22;9815;52.334;20.890;2023-06-22T03:29:35;18.80;99.90
19359;DHT22;9815;52.334;20.890;2023-06-22T03:32:04;18.90;99.90
19359;DHT22;9815;52.334;20.890;2023-06-22T03:34:33;18.80;99.90
19359;DHT22;9815;52.334;20.890;2023-06-22T03:37:01;18.80;99.90
19359;DHT22;9815;52.334;20.890;2023-06-22T03:39:31;18.80;99.90
19359;DHT22;9815;52.334;20.890;2023-06-22T03:42:00;18.90;99.90
19359;DHT22;9815;52.334;20.890;2023-06-22T03:44:28;18.90;99.90
19359;DHT22;9815;52.334;20.890;2023-06-22T03:46:56;19.00;99.90
19359;DHT22;9815;52.334;20.890;2023-06-22T03:49:24;19.00;99.90
19359;DHT22;9815;52.334;20.890;2023-06-22T03:51:52;19.00;99.90
19359;DHT22;9815;52.334;20.890;2023-06-22T03:54:20;19.10;99.90
19359;DHT22;9815;52.334;20.890;2023-06-22T03:56:50;19.10;99.90
19359;DHT22;9815;52.334;20.890;2023-06-22T03:59:18;19.10;99.90
19359;DHT22;9815;52.334;20.890;2023-06-22T04:01:46;19.10;99.90
19359;DHT22;9815;52.334;20.890;2023-06-22T04:04:14;19.20;99.90
19359;DHT22;9815;52.334;20.890;2023-06-22T04:06:42;19.20;99.90
19359;DHT22;9815;52.334;20.890;2023-06-22T04:09:10;19.20;99.90
19359;DHT22;9815;52.334;20.890;2023-06-22T04:11:38;19.20;99.90
19359;DHT22;9815;52.334;20.890;2023-06-22T04:14:08;19.30;99.90
19359;DHT22;9815;52.334;20.890;2023-06-22T04:16:36;19.40;99.90
19359;DHT22;9815;52.334;20.890;2023-06-22T04:19:04;19.40;99.90
19359;DHT22;9815;52.334;20.890;2023-06-22T04:21:32;19.50;99.90
19359;DHT22;9815;52.334;20.890;2023-06-22T04:24:00;19.40;99.90
19359;DHT22;9815;52.334;20.890;2023-06-22T04:26:28;19.60;99.90
19359;DHT22;9815;52.334;20.890;2023-06-22T04:28:56;19.70;99.90
19359;DHT22;9815;52.334;20.890;2023-06-22T04:31:26;19.70;99.90
19359;DHT22;9815;52.334;20.890;2023-06-22T04:34:00;19.80;99.90
19359;DHT22;9815;52.334;20.890;2023-06-22T04:36:34;19.80;99.90
19359;DHT22;9815;52.334;20.890;2023-06-22T04:39:05;19.90;99.90
19359;DHT22;9815;52.334;20.890;2023-06-22T04:41:36;20.00;99.90
19359;DHT22;9815;52.334;20.890;2023-06-22T04:44:10;20.00;99.90
19359;DHT22;9815;52.334;20.890;2023-06-22T04:46:39;20.10;99.90
19359;DHT22;9815;52.334;20.890;2023-06-22T04:49:08;20.00;99.90
19359;DHT22;9815;52.334;20.890;2023-06-22T04:51:39;20.10;99.90
19359;DHT22;9815;52.334;20.890;2023-06-22T04:54:07;20.10;99.90
19359;DHT22;9815;52.334;20.890;2023-06-22T04:56:36;20.10;99.90
19359;DHT22;9815;52.334;20.890;2023-06-22T04:59:04;20.20;99.90
19359;DHT22;9815;52.334;20.890;2023-06-22T05:01:32;20.20;99.90
19359;DHT22;9815;52.334;20.890;2023-06-22T05:04:03;20.20;99.90
19359;DHT22;9815;52.334;20.890;2023-06-22T05:06:33;20.30;99.90
19359;DHT22;9815;52.334;20.890;2023-06-22T05:09:01;20.30;99.90
19359;DHT22;9815;52.334;20.890;2023-06-22T05:11:31;20.40;99.90
19359;DHT22;9815;52.334;20.890;2023-06-22T05:13:59;20.50;99.90
19359;DHT22;9815;52.334;20.890;2023-06-22T05:16:28;20.50;99.90
19359;DHT22;9815;52.334;20.890;2023-06-22T05:18:56;20.60;99.90
19359;DHT22;9815;52.334;20.890;2023-06-22T05:21:27;20.70;99.90
19359;DHT22;9815;52.334;20.890;2023-06-22T05:23:55;20.80;99.90
19359;DHT22;9815;52.334;20.890;2023-06-22T05:26:26;20.80;99.90
19359;DHT22;9815;52.334;20.890;2023-06-22T05:28:55;20.80;99.90
19359;DHT22;9815;52.334;20.890;2023-06-22T05:31:23;20.80;99.90
19359;DHT22;9815;52.334;20.890;2023-06-22T05:33:53;20.80;99.90
19359;DHT22;9815;52.334;20.890;2023-06-22T05:36:22;20.80;99.90
19359;DHT22;9815;52.334;20.890;2023-06-22T05:38:53;20.90;99.90
19359;DHT22;9815;52.334;20.890;2023-06-22T05:41:21;20.90;99.90
19359;DHT22;9815;52.334;20.890;2023-06-22T05:43:49;20.90;99.90
19359;DHT22;9815;52.334;20.890;2023-06-22T05:46:18;21.00;99.90
19359;DHT22;9815;52.334;20.890;2023-06-22T05:48:46;21.10;99.90
19359;DHT22;9815;52.334;20.890;2023-06-22T05:51:14;21.10;99.90
19359;DHT22;9815;52.334;20.890;2023-06-22T05:53:43;21.20;99.90
19359;DHT22;9815;52.334;20.890;2023-06-22T05:56:17;21.20;99.90
19359;DHT22;9815;52.334;20.890;2023-06-22T05:58:46;21.30;99.90
19359;DHT22;9815;52.334;20.890;2023-06-22T06:01:14;21.30;99.90
19359;DHT22;9815;52.334;20.890;2023-06-22T06:03:43;21.30;99.90
19359;DHT22;9815;52.334;20.890;2023-06-22T06:06:11;21.30;99.90
19359;DHT22;9815;52.334;20.890;2023-06-22T06:08:41;21.40;99.90
19359;DHT22;9815;52.334;20.890;2023-06-22T06:11:09;21.40;99.90
19359;DHT22;9815;52.334;20.890;2023-06-22T06:13:39;21.50;99.90
19359;DHT22;9815;52.334;20.890;2023-06-22T06:16:07;21.60;99.90
19359;DHT22;9815;52.334;20.890;2023-06-22T06:18:35;21.70;99.90
19359;DHT22;9815;52.334;20.890;2023-06-22T06:21:04;21.80;99.90
19359;DHT22;9815;52.334;20.890;2023-06-22T06:23:32;21.70;99.90
19359;DHT22;9815;52.334;20.890;2023-06-22T06:26:00;21.80;99.90
19359;DHT22;9815;52.334;20.890;2023-06-22T06:28:28;21.90;99.90
19359;DHT22;9815;52.334;20.890;2023-06-22T06:30:58;22.00;99.90
19359;DHT22;9815;52.334;20.890;2023-06-22T06:33:26;22.00;99.90
19359;DHT22;9815;52.334;20.890;2023-06-22T06:35:54;22.10;99.90
19359;DHT22;9815;52.334;20.890;2023-06-22T06:38:22;22.10;99.90
19359;DHT22;9815;52.334;20.890;2023-06-22T06:40:51;22.20;99.90
19359;DHT22;9815;52.334;20.890;2023-06-22T06:43:19;22.30;99.90
19359;DHT22;9815;52.334;20.890;2023-06-22T06:45:47;22.50;99.90
19359;DHT22;9815;52.334;20.890;2023-06-22T06:48:19;22.60;99.90
19359;DHT22;9815;52.334;20.890;2023-06-22T06:50:47;22.70;99.90
19359;DHT22;9815;52.334;20.890;2023-06-22T06:53:16;22.80;99.90
19359;DHT22;9815;52.334;20.890;2023-06-22T06:55:44;22.90;99.90
19359;DHT22;9815;52.334;20.890;2023-06-22T06:58:13;22.80;99.90
19359;DHT22;9815;52.334;20.890;2023-06-22T07:00:41;22.70;99.90
19359;DHT22;9815;52.334;20.890;2023-06-22T07:03:10;22.70;99.90
19359;DHT22;9815;52.334;20.890;2023-06-22T07:05:39;22.80;99.90
19359;DHT22;9815;52.334;20.890;2023-06-22T07:08:07;22.90;99.90
19359;DHT22;9815;52.334;20.890;2023-06-22T07:10:36;23.00;99.90
19359;DHT22;9815;52.334;20.890;2023-06-22T07:13:04;23.10;99.90
19359;DHT22;9815;52.334;20.890;2023-06-22T07:15:32;23.20;99.90
19359;DHT22;9815;52.334;20.890;2023-06-22T07:18:00;23.20;99.90
19359;DHT22;9815;52.334;20.890;2023-06-22T07:20:28;23.20;99.90
19359;DHT22;9815;52.334;20.890;2023-06-22T07:22:58;23.20;99.90
19359;DHT22;9815;52.334;20.890;2023-06-22T07:25:26;23.30;99.90
19359;DHT22;9815;52.334;20.890;2023-06-22T07:27:59;23.30;99.90
19359;DHT22;9815;52.334;20.890;2023-06-22T07:30:28;23.30;99.90
19359;DHT22;9815;52.334;20.890;2023-06-22T07:32:58;23.40;99.90
19359;DHT22;9815;52.334;20.890;2023-06-22T07:35:30;23.50;99.90
19359;DHT22;9815;52.334;20.890;2023-06-22T07:38:03;23.60;99.90
19359;DHT22;9815;52.334;20.890;2023-06-22T07:40:32;23.90;99.90
19359;DHT22;9815;52.334;20.890;2023-06-22T07:43:02;24.50;99.90
19359;DHT22;9815;52.334;20.890;2023-06-22T07:45:31;25.10;98.80
19359;DHT22;9815;52.334;20.890;2023-06-22T07:48:00;25.80;84.00
19359;DHT22;9815;52.334;20.890;2023-06-22T07:50:28;26.00;74.70
19359;DHT22;9815;52.334;20.890;2023-06-22T07:52:57;26.10;56.50
19359;DHT22;9815;52.334;20.890;2023-06-22T07:55:26;26.20;55.80
19359;DHT22;9815;52.334;20.890;2023-06-22T07:57:56;26.10;56.60
19359;DHT22;9815;52.334;20.890;2023-06-22T08:00:25;26.20;51.10
19359;DHT22;9815;52.334;20.890;2023-06-22T08:02:53;26.30;45.80
19359;DHT22;9815;52.334;20.890;2023-06-22T08:05:21;26.20;51.50
19359;DHT22;9815;52.334;20.890;2023-06-22T08:07:50;26.40;51.20
19359;DHT22;9815;52.334;20.890;2023-06-22T08:10:19;26.60;51.60
19359;DHT22;9815;52.334;20.890;2023-06-22T08:12:50;26.90;45.50
19359;DHT22;9815;52.334;20.890;2023-06-22T08:15:19;27.00;41.90
19359;DHT22;9815;52.334;20.890;2023-06-22T08:17:49;26.60;46.40
19359;DHT22;9815;52.334;20.890;2023-06-22T08:20:19;26.90;49.00
19359;DHT22;9815;52.334;20.890;2023-06-22T08:22:47;26.90;47.90
19359;DHT22;9815;52.334;20.890;2023-06-22T08:25:15;26.80;47.60
19359;DHT22;9815;52.334;20.890;2023-06-22T08:27:45;26.60;45.20
19359;DHT22;9815;52.334;20.890;2023-06-22T08:30:16;26.80;45.10
19359;DHT22;9815;52.334;20.890;2023-06-22T08:32:45;26.50;47.10
19359;DHT22;9815;52.334;20.890;2023-06-22T08:35:13;26.90;44.80
19359;DHT22;9815;52.334;20.890;2023-06-22T08:37:42;26.90;38.00
19359;DHT22;9815;52.334;20.890;2023-06-22T08:40:12;26.30;37.40
19359;DHT22;9815;52.334;20.890;2023-06-22T08:42:40;26.40;43.10
19359;DHT22;9815;52.334;20.890;2023-06-22T08:45:10;26.40;42.30
19359;DHT22;9815;52.334;20.890;2023-06-22T08:47:40;26.40;38.20
19359;DHT22;9815;52.334;20.890;2023-06-22T08:50:09;26.70;34.60
19359;DHT22;9815;52.334;20.890;2023-06-22T08:52:38;26.90;37.20
19359;DHT22;9815;52.334;20.890;2023-06-22T08:55:09;26.60;37.50
19359;DHT22;9815;52.334;20.890;2023-06-22T08:57:37;27.00;36.70
19359;DHT22;9815;52.334;20.890;2023-06-22T09:00:08;26.90;33.40
19359;DHT22;9815;52.334;20.890;2023-06-22T09:02:44;27.00;35.50
19359;DHT22;9815;52.334;20.890;2023-06-22T09:05:13;27.20;35.40
19359;DHT22;9815;52.334;20.890;2023-06-22T09:07:42;27.50;32.80
19359;DHT22;9815;52.334;20.890;2023-06-22T09:10:11;27.70;28.50
19359;DHT22;9815;52.334;20.890;2023-06-22T09:12:39;27.80;30.10
19359;DHT22;9815;52.334;20.890;2023-06-22T09:15:08;28.00;29.70
19359;DHT22;9815;52.334;20.890;2023-06-22T09:17:41;28.10;30.00
19359;DHT22;9815;52.334;20.890;2023-06-22T09:20:12;28.50;30.70
19359;DHT22;9815;52.334;20.890;2023-06-22T09:22:40;28.70;33.10
19359;DHT22;9815;52.334;20.890;2023-06-22T09:25:09;28.50;31.40
19359;DHT22;9815;52.334;20.890;2023-06-22T09:27:37;28.60;29.70
19359;DHT22;9815;52.334;20.890;2023-06-22T09:30:07;28.60;28.60
19359;DHT22;9815;52.334;20.890;2023-06-22T09:32:35;28.40;26.50
19359;DHT22;9815;52.334;20.890;2023-06-22T09:35:05;28.50;27.80
19359;DHT22;9815;52.334;20.890;2023-06-22T09:37:36;28.30;27.20
19359;DHT22;9815;52.334;20.890;2023-06-22T09:40:06;28.80;27.30
19359;DHT22;9815;52.334;20.890;2023-06-22T09:42:38;28.90;28.50
19359;DHT22;9815;52.334;20.890;2023-06-22T09:45:07;29.10;28.70
19359;DHT22;9815;52.334;20.890;2023-06-22T09:47:35;29.40;27.60
19359;DHT22;9815;52.334;20.890;2023-06-22T09:50:04;28.90;27.00
19359;DHT22;9815;52.334;20.890;2023-06-22T09:52:32;28.90;26.60
19359;DHT22;9815;52.334;20.890;2023-06-22T09:55:15;29.10;27.30
19359;DHT22;9815;52.334;20.890;2023-06-22T09:57:44;29.00;27.40
19359;DHT22;9815;52.334;20.890;2023-06-22T10:00:13;28.90;30.50
19359;DHT22;9815;52.334;20.890;2023-06-22T10:02:42;29.00;30.40
19359;DHT22;9815;52.334;20.890;2023-06-22T10:05:11;29.40;30.10
19359;DHT22;9815;52.334;20.890;2023-06-22T10:07:39;29.30;30.40
19359;DHT22;9815;52.334;20.890;2023-06-22T10:10:10;29.20;31.00
19359;DHT22;9815;52.334;20.890;2023-06-22T10:12:45;29.30;30.20
19359;DHT22;9815;52.334;20.890;2023-06-22T10:15:14;29.20;30.90
19359;DHT22;9815;52.334;20.890;2023-06-22T10:17:43;29.30;30.50
19359;DHT22;9815;52.334;20.890;2023-06-22T10:20:11;29.40;30.00
19359;DHT22;9815;52.334;20.890;2023-06-22T10:22:40;29.60;29.90
19359;DHT22;9815;52.334;20.890;2023-06-22T10:25:09;29.40;30.60
19359;DHT22;9815;52.334;20.890;2023-06-22T10:27:38;29.30;30.60
19359;DHT22;9815;52.334;20.890;2023-06-22T10:30:10;29.10;30.10
19359;DHT22;9815;52.334;20.890;2023-06-22T10:32:40;29.20;30.50
19359;DHT22;9815;52.334;20.890;2023-06-22T10:35:09;29.50;29.90
19359;DHT22;9815;52.334;20.890;2023-06-22T10:37:40;29.60;29.10
19359;DHT22;9815;52.334;20.890;2023-06-22T10:40:11;29.40;29.60
19359;DHT22;9815;52.334;20.890;2023-06-22T10:42:39;29.50;30.00
19359;DHT22;9815;52.334;20.890;2023-06-22T10:45:09;29.40;29.70
19359;DHT22;9815;52.334;20.890;2023-06-22T10:47:38;29.60;29.60
19359;DHT22;9815;52.334;20.890;2023-06-22T10:50:09;29.70;29.40
19359;DHT22;9815;52.334;20.890;2023-06-22T10:52:37;29.20;28.70
19359;DHT22;9815;52.334;20.890;2023-06-22T10:55:06;28.90;30.00
19359;DHT22;9815;52.334;20.890;2023-06-22T10:57:35;29.20;30.00
19359;DHT22;9815;52.334;20.890;2023-06-22T11:00:04;29.40;28.80
19359;DHT22;9815;52.334;20.890;2023-06-22T11:02:35;29.50;29.50
19359;DHT22;9815;52.334;20.890;2023-06-22T11:05:03;29.10;28.70
19359;DHT22;9815;52.334;20.890;2023-06-22T11:07:32;29.30;28.00
19359;DHT22;9815;52.334;20.890;2023-06-22T11:10:00;29.60;27.90
19359;DHT22;9815;52.334;20.890;2023-06-22T11:12:28;29.90;27.20
19359;DHT22;9815;52.334;20.890;2023-06-22T11:14:56;29.70;28.50
19359;DHT22;9815;52.334;20.890;2023-06-22T11:17:25;29.70;28.20
19359;DHT22;9815;52.334;20.890;2023-06-22T11:19:55;29.90;27.80
19359;DHT22;9815;52.334;20.890;2023-06-22T11:22:23;30.00;26.30
19359;DHT22;9815;52.334;20.890;2023-06-22T11:24:51;30.20;26.70
19359;DHT22;9815;52.334;20.890;2023-06-22T11:27:20;30.30;27.60
19359;DHT22;9815;52.334;20.890;2023-06-22T11:29:48;30.30;25.60
19359;DHT22;9815;52.334;20.890;2023-06-22T11:32:16;30.00;25.50
19359;DHT22;9815;52.334;20.890;2023-06-22T11:34:44;30.00;25.40
19359;DHT22;9815;52.334;20.890;2023-06-22T11:37:15;30.10;24.80
19359;DHT22;9815;52.334;20.890;2023-06-22T11:39:43;30.00;25.70
19359;DHT22;9815;52.334;20.890;2023-06-22T11:42:19;30.40;25.50
19359;DHT22;9815;52.334;20.890;2023-06-22T11:44:47;30.20;25.50
19359;DHT22;9815;52.334;20.890;2023-06-22T11:47:15;30.50;25.20
19359;DHT22;9815;52.334;20.890;2023-06-22T11:49:43;30.30;25.10
19359;DHT22;9815;52.334;20.890;2023-06-22T11:52:11;30.00;24.20
19359;DHT22;9815;52.334;20.890;2023-06-22T11:54:41;29.50;23.60
19359;DHT22;9815;52.334;20.890;2023-06-22T11:57:09;29.50;26.00
19359;DHT22;9815;52.334;20.890;2023-06-22T11:59:37;30.00;25.70
19359;DHT22;9815;52.334;20.890;2023-06-22T12:02:05;30.50;25.60
19359;DHT22;9815;52.334;20.890;2023-06-22T12:04:36;30.30;25.20
19359;DHT22;9815;52.334;20.890;2023-06-22T12:07:04;30.20;22.10
19359;DHT22;9815;52.334;20.890;2023-06-22T12:09:32;29.90;22.40
19359;DHT22;9815;52.334;20.890;2023-06-22T12:12:02;29.90;24.00
19359;DHT22;9815;52.334;20.890;2023-06-22T12:14:33;30.10;23.80
19359;DHT22;9815;52.334;20.890;2023-06-22T12:17:02;30.00;23.40
19359;DHT22;9815;52.334;20.890;2023-06-22T12:19:30;29.80;23.10
19359;DHT22;9815;52.334;20.890;2023-06-22T12:21:58;29.60;24.90
19359;DHT22;9815;52.334;20.890;2023-06-22T12:24:26;30.00;23.90
19359;DHT22;9815;52.334;20.890;2023-06-22T12:26:54;29.90;23.60
19359;DHT22;9815;52.334;20.890;2023-06-22T12:29:23;29.90;23.30
19359;DHT22;9815;52.334;20.890;2023-06-22T12:31:52;30.10;23.90
19359;DHT22;9815;52.334;20.890;2023-06-22T12:34:20;30.70;24.00
19359;DHT22;9815;52.334;20.890;2023-06-22T12:36:48;31.00;24.00
19359;DHT22;9815;52.334;20.890;2023-06-22T12:39:16;30.90;23.90
19359;DHT22;9815;52.334;20.890;2023-06-22T12:41:44;30.80;22.80
19359;DHT22;9815;52.334;20.890;2023-06-22T12:44:12;30.70;22.80
19359;DHT22;9815;52.334;20.890;2023-06-22T12:46:42;30.40;22.00
19359;DHT22;9815;52.334;20.890;2023-06-22T12:49:10;30.00;23.30
19359;DHT22;9815;52.334;20.890;2023-06-22T12:51:40;30.30;23.70
19359;DHT22;9815;52.334;20.890;2023-06-22T12:54:09;29.90;24.80
19359;DHT22;9815;52.334;20.890;2023-06-22T12:56:37;30.30;25.90
19359;DHT22;9815;52.334;20.890;2023-06-22T12:59:06;30.80;25.00
19359;DHT22;9815;52.334;20.890;2023-06-22T13:01:34;30.40;23.80
19359;DHT22;9815;52.334;20.890;2023-06-22T13:04:05;30.40;23.70
19359;DHT22;9815;52.334;20.890;2023-06-22T13:06:33;30.50;23.40
19359;DHT22;9815;52.334;20.890;2023-06-22T13:09:02;30.00;25.40
19359;DHT22;9815;52.334;20.890;2023-06-22T13:11:34;29.60;26.70
19359;DHT22;9815;52.334;20.890;2023-06-22T13:14:02;29.40;27.80
19359;DHT22;9815;52.334;20.890;2023-06-22T13:16:33;29.40;27.20
19359;DHT22;9815;52.334;20.890;2023-06-22T13:19:01;28.80;27.50
19359;DHT22;9815;52.334;20.890;2023-06-22T13:21:31;28.60;28.40
19359;DHT22;9815;52.334;20.890;2023-06-22T13:24:00;29.10;28.80
19359;DHT22;9815;52.334;20.890;2023-06-22T13:26:29;29.80;28.20
19359;DHT22;9815;52.334;20.890;2023-06-22T13:28:57;30.40;26.20
19359;DHT22;9815;52.334;20.890;2023-06-22T13:31:28;30.30;24.60
19359;DHT22;9815;52.334;20.890;2023-06-22T13:33:57;30.10;25.20
19359;DHT22;9815;52.334;20.890;2023-06-22T13:36:26;30.40;24.10
19359;DHT22;9815;52.334;20.890;2023-06-22T13:38:59;30.60;25.00
19359;DHT22;9815;52.334;20.890;2023-06-22T13:41:27;30.40;25.20
19359;DHT22;9815;52.334;20.890;2023-06-22T13:43:55;30.40;25.00
19359;DHT22;9815;52.334;20.890;2023-06-22T13:46:26;30.10;25.70
19359;DHT22;9815;52.334;20.890;2023-06-22T13:48:54;30.00;23.40
19359;DHT22;9815;52.334;20.890;2023-06-22T13:51:23;29.60;25.10
19359;DHT22;9815;52.334;20.890;2023-06-22T13:53:53;29.30;26.60
19359;DHT22;9815;52.334;20.890;2023-06-22T13:56:22;29.50;27.50
19359;DHT22;9815;52.334;20.890;2023-06-22T13:58:51;29.30;26.70
19359;DHT22;9815;52.334;20.890;2023-06-22T14:01:19;29.60;26.10
19359;DHT22;9815;52.334;20.890;2023-06-22T14:03:48;29.80;26.40
19359;DHT22;9815;52.334;20.890;2023-06-22T14:06:16;29.80;27.80
19359;DHT22;9815;52.334;20.890;2023-06-22T14:08:44;29.90;26.10
19359;DHT22;9815;52.334;20.890;2023-06-22T14:11:13;29.60;26.30
19359;DHT22;9815;52.334;20.890;2023-06-22T14:13:42;29.80;25.20
19359;DHT22;9815;52.334;20.890;2023-06-22T14:16:11;29.90;24.60
19359;DHT22;9815;52.334;20.890;2023-06-22T14:18:39;30.10;24.60
19359;DHT22;9815;52.334;20.890;2023-06-22T14:21:07;30.00;24.50
19359;DHT22;9815;52.334;20.890;2023-06-22T14:23:35;30.00;25.20
19359;DHT22;9815;52.334;20.890;2023-06-22T14:26:04;30.10;24.70
19359;DHT22;9815;52.334;20.890;2023-06-22T14:28:32;30.00;25.40
19359;DHT22;9815;52.334;20.890;2023-06-22T14:31:01;29.80;25.20
19359;DHT22;9815;52.334;20.890;2023-06-22T14:33:30;30.00;24.80
19359;DHT22;9815;52.334;20.890;2023-06-22T14:35:58;30.00;23.80
19359;DHT22;9815;52.334;20.890;2023-06-22T14:38:26;29.70;24.60
19359;DHT22;9815;52.334;20.890;2023-06-22T14:40:54;29.80;24.60
19359;DHT22;9815;52.334;20.890;2023-06-22T14:43:44;29.40;23.90
19359;DHT22;9815;52.334;20.890;2023-06-22T14:46:18;29.20;24.80
19359;DHT22;9815;52.334;20.890;2023-06-22T14:48:47;29.60;24.20
19359;DHT22;9815;52.334;20.890;2023-06-22T14:51:15;29.50;23.70
19359;DHT22;9815;52.334;20.890;2023-06-22T14:53:44;29.50;23.70
19359;DHT22;9815;52.334;20.890;2023-06-22T14:56:13;29.70;23.60
19359;DHT22;9815;52.334;20.890;2023-06-22T14:58:43;29.60;23.50
19359;DHT22;9815;52.334;20.890;2023-06-22T15:01:14;29.80;24.20
19359;DHT22;9815;52.334;20.890;2023-06-22T15:03:45;29.50;23.50
19359;DHT22;9815;52.334;20.890;2023-06-22T15:06:13;29.30;23.60
19359;DHT22;9815;52.334;20.890;2023-06-22T15:08:41;29.20;24.00
19359;DHT22;9815;52.334;20.890;2023-06-22T15:11:10;29.00;23.60
19359;DHT22;9815;52.334;20.890;2023-06-22T15:13:40;28.70;23.60
19359;DHT22;9815;52.334;20.890;2023-06-22T15:16:09;28.70;24.00
19359;DHT22;9815;52.334;20.890;2023-06-22T15:18:37;28.70;23.90
19359;DHT22;9815;52.334;20.890;2023-06-22T15:21:09;28.60;23.70
19359;DHT22;9815;52.334;20.890;2023-06-22T15:23:40;28.40;23.30
19359;DHT22;9815;52.334;20.890;2023-06-22T15:26:08;28.50;24.40
19359;DHT22;9815;52.334;20.890;2023-06-22T15:28:36;29.00;23.60
19359;DHT22;9815;52.334;20.890;2023-06-22T15:31:06;28.80;23.20
19359;DHT22;9815;52.334;20.890;2023-06-22T15:33:34;28.50;23.20
19359;DHT22;9815;52.334;20.890;2023-06-22T15:36:04;28.60;23.20
19359;DHT22;9815;52.334;20.890;2023-06-22T15:38:35;28.70;23.30
19359;DHT22;9815;52.334;20.890;2023-06-22T15:41:03;28.50;23.40
19359;DHT22;9815;52.334;20.890;2023-06-22T15:43:31;28.50;23.40